TAF KCUB
KCUB 280520Z 2806/2906 VRB03KT P6SM SCT200 FM281500 25006KT P6SM BKN200 FM290300 28004KT P6SM SCT250=
METAR KCUB
WC KCUB
WS KCUB
WV KCUB